createdAt,value
2018-11-10T00:01:44.303Z,21.60
2018-11-10T00:04:12.697Z,21.03
2018-11-10T00:06:41.095Z,23.23
2018-11-10T00:09:09.695Z,23.03
2018-11-10T00:11:38.075Z,23.57
2018-11-10T00:14:06.666Z,22.97
2018-11-10T00:16:35.323Z,22.20
2018-11-10T00:19:03.713Z,21.03
2018-11-10T00:21:32.423Z,22.33
2018-11-10T00:24:00.911Z,21.73
2018-11-10T00:26:29.280Z,20.57
2018-11-10T00:28:57.937Z,20.90
2018-11-10T00:31:26.739Z,21.83
2018-11-10T00:33:55.110Z,20.87
2018-11-10T00:36:23.506Z,19.60
2018-11-10T00:38:52.100Z,18.30
2018-11-10T00:41:20.473Z,18.50
2018-11-10T00:43:48.851Z,16.70
2018-11-10T00:46:17.217Z,17.77
2018-11-10T00:48:45.585Z,16.33
2018-11-10T00:51:13.949Z,17.60
2018-11-10T00:53:42.349Z,14.73
2018-11-10T00:56:10.710Z,17.33
2018-11-10T00:58:39.177Z,17.07
2018-11-10T01:01:07.628Z,15.40
2018-11-10T01:03:36.031Z,15.40
2018-11-10T01:06:04.333Z,16.47
2018-11-10T01:08:32.417Z,15.70
2018-11-10T01:11:00.854Z,15.17
2018-11-10T01:13:29.190Z,16.30
2018-11-10T01:15:57.525Z,16.67
2018-11-10T01:18:25.897Z,17.07
2018-11-10T01:20:54.223Z,16.27
2018-11-10T01:23:22.583Z,16.53
2018-11-10T01:25:50.914Z,17.20
2018-11-10T01:28:19.249Z,16.20
2018-11-10T01:30:47.634Z,16.87
2018-11-10T01:33:15.946Z,17.37
2018-11-10T01:35:44.272Z,18.40
2018-11-10T01:38:12.606Z,16.10
2018-11-10T01:40:40.958Z,15.40
2018-11-10T01:43:09.429Z,16.37
2018-11-10T01:45:37.819Z,18.73
2018-11-10T01:48:06.286Z,15.90
2018-11-10T01:50:34.606Z,17.20
2018-11-10T01:53:02.971Z,16.77
2018-11-10T01:55:31.383Z,19.23
2018-11-10T01:57:59.732Z,19.17
2018-11-10T02:00:28.112Z,15.20
2018-11-10T02:02:56.514Z,15.40
2018-11-10T02:05:24.977Z,14.73
2018-11-10T02:07:53.273Z,14.40
2018-11-10T02:10:21.628Z,15.50
2018-11-10T02:12:49.981Z,16.60
2018-11-10T02:15:18.405Z,17.37
2018-11-10T02:17:46.672Z,15.43
2018-11-10T02:20:15.532Z,14.63
2018-11-10T02:22:44.062Z,14.60
2018-11-10T02:25:12.907Z,14.40
2018-11-10T02:27:41.363Z,15.13
2018-11-10T02:30:10.748Z,15.10
2018-11-10T02:32:39.101Z,13.80
2018-11-10T02:35:08.136Z,14.70
2018-11-10T02:37:36.937Z,13.00
2018-11-10T02:40:06.415Z,17.97
2018-11-10T02:42:34.807Z,14.43
2018-11-10T02:45:03.099Z,15.40
2018-11-10T02:47:31.559Z,12.07
2018-11-10T02:49:59.929Z,13.60
2018-11-10T02:52:28.269Z,12.90
2018-11-10T02:54:56.596Z,11.93
2018-11-10T02:57:25.040Z,13.37
2018-11-10T02:59:53.432Z,12.43
2018-11-10T03:02:21.834Z,12.77
2018-11-10T03:04:50.198Z,12.20
2018-11-10T03:07:18.607Z,12.77
2018-11-10T03:09:47.032Z,12.03
2018-11-10T03:12:15.361Z,11.73
2018-11-10T03:14:43.534Z,10.67
2018-11-10T03:17:11.916Z,12.50
2018-11-10T03:19:40.509Z,11.90
2018-11-10T03:22:08.855Z,13.27
2018-11-10T03:24:37.199Z,13.63
2018-11-10T03:27:05.723Z,11.43
2018-11-10T03:29:34.188Z,12.27
2018-11-10T03:32:02.577Z,12.40
2018-11-10T03:34:30.934Z,10.00
2018-11-10T03:36:59.093Z,14.97
2018-11-10T03:39:27.350Z,11.00
2018-11-10T03:41:55.542Z,12.37
2018-11-10T03:44:23.834Z,12.10
2018-11-10T03:46:52.092Z,11.73
2018-11-10T03:49:20.231Z,11.60
2018-11-10T03:51:48.446Z,11.77
2018-11-10T03:54:16.700Z,10.47
2018-11-10T03:56:44.949Z,11.40
2018-11-10T03:59:13.179Z,10.77
2018-11-10T04:01:41.434Z,9.60
2018-11-10T04:04:09.657Z,9.73
2018-11-10T04:06:37.916Z,9.53
2018-11-10T04:09:06.810Z,9.50
2018-11-10T04:11:35.041Z,10.97
2018-11-10T04:14:03.263Z,7.70
2018-11-10T04:16:31.365Z,9.10
2018-11-10T04:18:59.583Z,8.40
2018-11-10T04:21:27.782Z,8.17
2018-11-10T04:23:56.028Z,8.70
2018-11-10T04:26:24.319Z,8.97
2018-11-10T04:28:52.494Z,8.23
2018-11-10T04:31:20.725Z,7.20
2018-11-10T04:33:49.007Z,9.10
2018-11-10T04:36:17.212Z,7.90
2018-11-10T04:38:45.393Z,7.47
2018-11-10T04:41:13.679Z,7.20
2018-11-10T04:43:42.000Z,8.30
2018-11-10T04:46:10.222Z,6.93
2018-11-10T04:48:38.555Z,6.77
2018-11-10T04:51:06.787Z,6.97
2018-11-10T04:53:35.061Z,7.47
2018-11-10T04:56:03.258Z,7.93
2018-11-10T04:58:31.513Z,7.23
2018-11-10T05:00:59.696Z,7.70
2018-11-10T05:03:27.970Z,7.00
2018-11-10T05:05:56.167Z,6.57
2018-11-10T05:08:24.355Z,5.30
2018-11-10T05:10:52.660Z,6.10
2018-11-10T05:13:20.956Z,6.13
2018-11-10T05:15:48.950Z,5.73
2018-11-10T05:18:17.138Z,5.83
2018-11-10T05:20:45.384Z,5.33
2018-11-10T05:23:13.583Z,5.03
2018-11-10T05:25:41.751Z,5.90
2018-11-10T05:28:10.051Z,5.03
2018-11-10T05:30:38.241Z,6.30
2018-11-10T05:33:06.454Z,4.43
2018-11-10T05:35:34.648Z,4.70
2018-11-10T05:38:03.844Z,4.50
2018-11-10T05:40:32.094Z,4.63
2018-11-10T05:43:00.329Z,4.00
2018-11-10T05:45:28.549Z,4.37
2018-11-10T05:47:56.809Z,4.30
2018-11-10T05:50:24.993Z,4.60
2018-11-10T05:52:53.237Z,4.03
2018-11-10T05:55:21.435Z,4.20
2018-11-10T05:57:49.647Z,4.07
2018-11-10T06:00:17.927Z,4.77
2018-11-10T06:02:46.157Z,5.03
2018-11-10T06:05:14.334Z,6.90
2018-11-10T06:07:42.563Z,4.17
2018-11-10T06:10:11.969Z,4.60
2018-11-10T06:12:40.032Z,5.10
2018-11-10T06:15:08.946Z,5.80
2018-11-10T06:17:37.203Z,4.10
2018-11-10T06:20:07.095Z,4.60
2018-11-10T06:22:35.206Z,3.60
2018-11-10T06:25:03.571Z,4.97
2018-11-10T06:27:31.931Z,3.77
2018-11-10T06:30:00.240Z,4.60
2018-11-10T06:32:28.463Z,5.30
2018-11-10T06:34:56.594Z,5.33
2018-11-10T06:37:24.860Z,4.73
2018-11-10T06:39:53.081Z,4.77
2018-11-10T06:42:21.260Z,4.10
2018-11-10T06:44:49.444Z,3.90
2018-11-10T06:47:17.772Z,4.20
2018-11-10T06:49:46.170Z,3.43
2018-11-10T06:52:14.566Z,3.60
2018-11-10T06:54:42.967Z,4.33
2018-11-10T06:57:11.173Z,4.20
2018-11-10T06:59:39.374Z,4.20
2018-11-10T07:02:07.713Z,5.60
2018-11-10T07:04:35.900Z,4.40
2018-11-10T07:07:04.185Z,3.90
2018-11-10T07:09:32.375Z,4.60
2018-11-10T07:12:00.531Z,4.30
2018-11-10T07:14:28.850Z,4.77
2018-11-10T07:16:57.258Z,3.87
2018-11-10T07:19:25.421Z,4.47
2018-11-10T07:21:53.594Z,4.50
2018-11-10T07:24:21.788Z,4.20
2018-11-10T07:26:50.005Z,3.90
2018-11-10T07:29:18.179Z,3.60
2018-11-10T07:31:46.511Z,4.43
2018-11-10T07:34:14.744Z,3.77
2018-11-10T07:36:42.954Z,3.40
2018-11-10T07:39:11.711Z,3.43
2018-11-10T07:41:39.998Z,3.53
2018-11-10T07:44:08.608Z,3.80
2018-11-10T07:46:36.795Z,4.53
2018-11-10T07:49:05.080Z,3.93
2018-11-10T07:51:33.725Z,4.70
2018-11-10T07:54:02.106Z,3.83
2018-11-10T07:56:30.549Z,3.10
2018-11-10T07:58:58.732Z,4.40
2018-11-10T08:01:26.973Z,4.03
2018-11-10T08:03:55.122Z,3.97
2018-11-10T08:06:23.311Z,3.70
2018-11-10T08:08:51.566Z,3.23
2018-11-10T08:11:19.726Z,3.60
2018-11-10T08:13:47.895Z,2.83
2018-11-10T08:16:16.092Z,2.67
2018-11-10T08:18:44.316Z,2.53
2018-11-10T08:21:12.422Z,2.57
2018-11-10T08:23:40.375Z,2.90
2018-11-10T08:26:08.655Z,2.90
2018-11-10T08:28:36.885Z,3.20
2018-11-10T08:31:05.129Z,3.40
2018-11-10T08:33:33.232Z,2.73
2018-11-10T08:36:01.481Z,3.40
2018-11-10T08:38:29.660Z,2.67
2018-11-10T08:40:57.832Z,2.90
2018-11-10T08:43:26.099Z,2.37
2018-11-10T08:45:54.271Z,2.40
2018-11-10T08:48:22.560Z,2.03
2018-11-10T08:50:50.759Z,2.50
2018-11-10T08:53:18.978Z,2.30
2018-11-10T08:55:47.138Z,2.57
2018-11-10T08:58:15.299Z,3.30
2018-11-10T09:00:43.497Z,4.10
2018-11-10T09:03:11.752Z,2.60
2018-11-10T09:05:39.919Z,2.23
2018-11-10T09:08:08.128Z,1.90
2018-11-10T09:10:36.304Z,2.20
2018-11-10T09:13:04.531Z,1.80
2018-11-10T09:15:32.701Z,2.10
2018-11-10T09:18:00.896Z,2.30
2018-11-10T09:20:29.079Z,2.23
2018-11-10T09:22:57.252Z,1.93
2018-11-10T09:25:25.452Z,2.20
2018-11-10T09:27:53.645Z,2.53
2018-11-10T09:30:21.810Z,2.40
2018-11-10T09:32:49.984Z,2.47
2018-11-10T09:35:18.146Z,2.73
2018-11-10T09:37:46.330Z,3.00
2018-11-10T09:40:15.560Z,3.57
2018-11-10T09:42:43.968Z,3.73
2018-11-10T09:45:13.411Z,2.80
2018-11-10T09:47:41.681Z,2.87
2018-11-10T09:50:14.182Z,3.23
2018-11-10T09:52:43.034Z,2.60
2018-11-10T09:55:11.436Z,2.40
2018-11-10T09:57:39.712Z,2.87
2018-11-10T10:00:11.924Z,1.90
2018-11-10T10:02:40.535Z,1.90
2018-11-10T10:05:08.947Z,2.33
2018-11-10T10:07:37.426Z,1.73
2018-11-10T10:10:06.642Z,2.07
2018-11-10T10:12:34.825Z,2.03
2018-11-10T10:15:03.084Z,1.80
2018-11-10T10:17:31.719Z,1.60
2018-11-10T10:19:59.928Z,1.80
2018-11-10T10:22:28.105Z,1.23
2018-11-10T10:24:56.286Z,1.57
2018-11-10T10:27:24.574Z,1.60
2018-11-10T10:29:52.754Z,1.50
2018-11-10T10:32:20.693Z,2.37
2018-11-10T10:34:48.771Z,4.00
2018-11-10T10:37:16.860Z,4.10
2018-11-10T10:39:45.127Z,1.80
2018-11-10T10:42:13.324Z,1.70
2018-11-10T10:44:41.499Z,2.10
2018-11-10T10:47:09.688Z,2.10
2018-11-10T10:49:37.868Z,1.67
2018-11-10T10:52:06.139Z,2.10
2018-11-10T10:54:34.343Z,2.40
2018-11-10T10:57:02.606Z,1.80
2018-11-10T10:59:30.779Z,2.27
2018-11-10T11:02:04.395Z,1.90
2018-11-10T11:04:38.029Z,1.60
2018-11-10T11:07:06.718Z,3.20
2018-11-10T11:09:34.915Z,1.87
2018-11-10T11:12:03.163Z,1.90
2018-11-10T11:14:31.343Z,2.50
2018-11-10T11:16:59.519Z,4.00
2018-11-10T11:19:27.819Z,2.77
2018-11-10T11:21:56.083Z,2.80
2018-11-10T11:24:24.221Z,1.77
2018-11-10T11:26:52.542Z,1.87
2018-11-10T11:29:20.820Z,2.00
2018-11-10T11:31:48.900Z,1.60
2018-11-10T11:34:17.120Z,2.37
2018-11-10T11:36:45.348Z,1.67
2018-11-10T11:39:13.511Z,2.20
2018-11-10T11:41:41.752Z,1.80
2018-11-10T11:44:10.199Z,1.63
2018-11-10T11:46:45.007Z,1.30
2018-11-10T11:49:13.171Z,1.90
2018-11-10T11:51:41.427Z,2.00
2018-11-10T11:54:09.602Z,1.70
2018-11-10T11:56:37.871Z,1.70
2018-11-10T11:59:06.118Z,1.53
2018-11-10T12:01:34.315Z,1.60
2018-11-10T12:04:02.572Z,1.27
2018-11-10T12:06:30.745Z,1.33
2018-11-10T12:08:58.987Z,1.50
2018-11-10T12:11:27.150Z,1.27
2018-11-10T12:13:55.335Z,1.40
2018-11-10T12:16:27.184Z,2.00
2018-11-10T12:18:51.734Z,1.53
2018-11-10T12:21:19.915Z,1.53
2018-11-10T12:23:54.771Z,1.67
2018-11-10T12:26:22.951Z,1.50
2018-11-10T12:28:51.123Z,1.60
2018-11-10T12:31:19.351Z,1.27
2018-11-10T12:33:47.507Z,2.10
2018-11-10T12:36:15.762Z,2.10
2018-11-10T12:38:43.978Z,1.60
2018-11-10T12:41:12.146Z,1.10
2018-11-10T12:43:40.380Z,1.30
2018-11-10T12:46:08.591Z,1.13
2018-11-10T12:48:36.784Z,1.40
2018-11-10T12:51:05.206Z,2.37
2018-11-10T12:53:33.400Z,1.47
2018-11-10T12:56:01.607Z,1.60
2018-11-10T12:58:29.787Z,1.33
2018-11-10T13:00:58.076Z,1.33
2018-11-10T13:03:26.272Z,1.53
2018-11-10T13:05:54.468Z,1.53
2018-11-10T13:08:22.716Z,2.07
2018-11-10T13:10:50.993Z,1.93
2018-11-10T13:13:19.103Z,1.83
2018-11-10T13:15:47.369Z,2.23
2018-11-10T13:18:15.540Z,2.03
2018-11-10T13:20:43.795Z,2.57
2018-11-10T13:23:11.910Z,2.60
2018-11-10T13:25:40.138Z,2.50
2018-11-10T13:28:08.367Z,2.33
2018-11-10T13:30:36.567Z,2.50
2018-11-10T13:33:04.985Z,2.67
2018-11-10T13:35:33.159Z,2.53
2018-11-10T13:38:01.412Z,2.37
2018-11-10T13:40:29.507Z,2.63
2018-11-10T13:42:57.691Z,2.33
2018-11-10T13:45:25.887Z,3.20
2018-11-10T13:47:54.121Z,2.77
2018-11-10T13:50:22.369Z,2.80
2018-11-10T13:52:50.964Z,2.90
2018-11-10T13:55:18.674Z,3.60
2018-11-10T13:57:46.890Z,3.07
2018-11-10T14:00:16.640Z,3.00
2018-11-10T14:02:44.883Z,2.80
2018-11-10T14:05:13.973Z,3.37
2018-11-10T14:07:42.199Z,4.03
2018-11-10T14:10:12.224Z,3.57
2018-11-10T14:12:41.402Z,4.10
2018-11-10T14:15:09.509Z,3.93
2018-11-10T14:17:37.859Z,4.87
2018-11-10T14:20:08.382Z,5.00
2018-11-10T14:22:36.851Z,6.00
2018-11-10T14:25:06.650Z,5.53
2018-11-10T14:27:34.842Z,6.73
2018-11-10T14:30:03.034Z,7.47
2018-11-10T14:32:31.193Z,7.03
2018-11-10T14:34:59.382Z,7.33
2018-11-10T14:37:27.566Z,7.40
2018-11-10T14:39:55.777Z,7.10
2018-11-10T14:42:23.711Z,7.67
2018-11-10T14:44:51.900Z,7.30
2018-11-10T14:47:20.015Z,7.20
2018-11-10T14:49:47.954Z,8.23
2018-11-10T14:52:16.126Z,7.90
2018-11-10T14:54:44.306Z,8.23
2018-11-10T14:57:12.568Z,9.53
2018-11-10T14:59:40.767Z,9.50
2018-11-10T15:02:09.027Z,7.13
2018-11-10T15:04:37.207Z,6.90
2018-11-10T15:07:06.584Z,7.20
2018-11-10T15:09:34.767Z,5.97
2018-11-10T15:12:02.999Z,6.60
2018-11-10T15:14:31.198Z,7.43
2018-11-10T15:16:59.481Z,6.63
2018-11-10T15:19:27.653Z,28.03
2018-11-10T15:21:55.835Z,14.10
2018-11-10T15:24:24.015Z,11.93
2018-11-10T15:26:52.281Z,9.60
2018-11-10T15:29:20.556Z,11.60
2018-11-10T15:31:48.760Z,11.73
2018-11-10T15:34:16.975Z,19.20
2018-11-10T15:36:45.152Z,16.17
2018-11-10T15:39:13.324Z,23.70
2018-11-10T15:41:41.493Z,24.17
2018-11-10T15:44:09.698Z,35.80
2018-11-10T15:46:37.663Z,22.03
2018-11-10T15:49:05.674Z,34.23
2018-11-10T15:51:33.846Z,36.20
2018-11-10T15:54:02.096Z,33.00
2018-11-10T15:56:30.279Z,33.00
2018-11-10T15:58:58.470Z,23.10
2018-11-10T16:01:26.652Z,18.63
2018-11-10T16:03:54.860Z,15.20
2018-11-10T16:06:23.083Z,13.63
2018-11-10T16:08:52.427Z,15.80
2018-11-10T16:11:21.677Z,13.10
2018-11-10T16:13:49.841Z,13.03
2018-11-10T16:16:18.184Z,14.50
2018-11-10T16:18:46.586Z,14.00
2018-11-10T16:21:14.778Z,14.50
2018-11-10T16:23:42.959Z,16.40
2018-11-10T16:26:11.138Z,16.70
2018-11-10T16:28:39.365Z,17.50
2018-11-10T16:31:07.525Z,16.17
2018-11-10T16:33:35.784Z,19.00
2018-11-10T16:36:04.023Z,25.47
2018-11-10T16:38:32.208Z,29.93
2018-11-10T16:41:00.539Z,24.90
2018-11-10T16:43:28.865Z,27.53
2018-11-10T16:45:57.293Z,24.30
2018-11-10T16:48:25.303Z,37.03
2018-11-10T16:50:53.484Z,25.93
2018-11-10T16:53:21.718Z,21.40
2018-11-10T16:55:49.935Z,16.60
2018-11-10T16:58:23.814Z,17.93
2018-11-10T17:00:51.991Z,19.93
2018-11-10T17:03:20.270Z,23.33
2018-11-10T17:05:48.466Z,19.67
2018-11-10T17:08:18.729Z,26.53
2018-11-10T17:10:46.846Z,24.90
2018-11-10T17:13:15.103Z,22.30
2018-11-10T17:15:43.276Z,20.90
2018-11-10T17:18:11.543Z,21.90
2018-11-10T17:20:39.897Z,16.33
2018-11-10T17:23:08.061Z,18.57
2018-11-10T17:25:36.312Z,14.10
2018-11-10T17:28:04.500Z,24.30
2018-11-10T17:30:32.692Z,23.90
2018-11-10T17:33:00.851Z,22.70
2018-11-10T17:35:29.091Z,19.97
2018-11-10T17:37:57.378Z,27.23
2018-11-10T17:40:25.672Z,28.17
2018-11-10T17:42:53.858Z,19.47
2018-11-10T17:45:22.035Z,14.97
2018-11-10T17:47:50.068Z,16.73
2018-11-10T17:50:18.724Z,17.00
2018-11-10T17:52:46.777Z,13.80
2018-11-10T17:55:16.184Z,16.83
2018-11-10T17:57:44.965Z,25.07
2018-11-10T18:00:13.108Z,26.27
2018-11-10T18:02:41.299Z,23.27
2018-11-10T18:05:11.607Z,18.30
2018-11-10T18:07:39.803Z,16.43
2018-11-10T18:10:09.638Z,22.33
2018-11-10T18:12:37.817Z,16.07
2018-11-10T18:15:07.292Z,46.27
2018-11-10T18:17:35.512Z,19.50
2018-11-10T18:20:03.888Z,17.53
2018-11-10T18:22:32.203Z,18.70
2018-11-10T18:25:00.463Z,18.93
2018-11-10T18:27:28.656Z,28.77
2018-11-10T18:29:56.876Z,37.00
2018-11-10T18:32:25.108Z,37.83
2018-11-10T18:34:53.325Z,30.60
2018-11-10T18:37:21.607Z,33.00
2018-11-10T18:39:50.392Z,35.10
2018-11-10T18:42:18.589Z,31.60
2018-11-10T18:44:46.898Z,30.07
2018-11-10T18:47:16.139Z,31.43
2018-11-10T18:49:44.321Z,25.23
2018-11-10T18:52:12.584Z,22.53
2018-11-10T18:54:40.781Z,21.70
2018-11-10T18:57:08.797Z,28.77
2018-11-10T18:59:36.682Z,27.00
2018-11-10T19:02:05.149Z,25.17
2018-11-10T19:04:33.361Z,23.00
2018-11-10T19:07:01.641Z,19.43
2018-11-10T19:09:29.790Z,39.10
2018-11-10T19:11:57.992Z,21.70
2018-11-10T19:14:26.348Z,22.90
2018-11-10T19:16:54.776Z,20.03
2018-11-10T19:19:23.119Z,22.30
2018-11-10T19:21:51.427Z,22.60
2018-11-10T19:24:19.854Z,25.50
2018-11-10T19:26:48.277Z,32.57
2018-11-10T19:29:16.750Z,24.97
2018-11-10T19:31:51.509Z,18.77
2018-11-10T19:34:19.704Z,13.03
2018-11-10T19:36:47.907Z,12.53
2018-11-10T19:39:16.085Z,11.50
2018-11-10T19:41:44.375Z,11.80
2018-11-10T19:44:12.572Z,15.60
2018-11-10T19:46:41.189Z,14.00
2018-11-10T19:49:09.918Z,13.40
2018-11-10T19:51:38.445Z,12.83
2018-11-10T19:54:06.363Z,13.17
2018-11-10T19:56:35.359Z,13.47
2018-11-10T19:59:03.556Z,12.90
2018-11-10T20:01:31.754Z,14.90
2018-11-10T20:03:59.937Z,16.40
2018-11-10T20:06:28.199Z,19.13
2018-11-10T20:08:56.339Z,17.53
2018-11-10T20:11:24.538Z,14.60
2018-11-10T20:13:52.744Z,15.40
2018-11-10T20:16:21.012Z,17.03
2018-11-10T20:18:49.227Z,20.00
2018-11-10T20:21:17.499Z,15.30
2018-11-10T20:23:45.859Z,18.50
2018-11-10T20:26:14.058Z,17.27
2018-11-10T20:28:42.364Z,14.90
2018-11-10T20:31:10.618Z,14.80
2018-11-10T20:33:38.785Z,20.30
2018-11-10T20:36:07.072Z,20.13
2018-11-10T20:38:35.242Z,20.83
2018-11-10T20:41:03.417Z,24.87
2018-11-10T20:43:31.627Z,20.00
2018-11-10T20:45:59.813Z,21.03
2018-11-10T20:48:28.042Z,24.63
2018-11-10T20:50:56.237Z,27.60
2018-11-10T20:53:24.908Z,25.57
2018-11-10T20:55:53.170Z,23.07
2018-11-10T20:58:21.112Z,19.97
2018-11-10T21:00:49.437Z,21.13
2018-11-10T21:03:17.640Z,22.47
2018-11-10T21:05:45.928Z,23.83
2018-11-10T21:08:14.108Z,23.63
2018-11-10T21:10:42.363Z,23.27
2018-11-10T21:13:10.580Z,21.30
2018-11-10T21:15:38.763Z,18.97
2018-11-10T21:18:06.980Z,21.60
2018-11-10T21:20:35.218Z,20.40
2018-11-10T21:23:03.424Z,20.70
2018-11-10T21:25:31.631Z,22.90
2018-11-10T21:27:59.842Z,22.80
2018-11-10T21:30:28.232Z,22.87
2018-11-10T21:32:56.422Z,28.13
2018-11-10T21:35:24.852Z,26.93
2018-11-10T21:37:52.854Z,28.90
2018-11-10T21:40:21.607Z,32.03
2018-11-10T21:42:49.782Z,30.67
2018-11-10T21:45:18.554Z,27.77
2018-11-10T21:47:47.015Z,29.00
2018-11-10T21:50:19.420Z,32.80
2018-11-10T21:52:47.620Z,35.40
2018-11-10T21:55:17.283Z,30.30
2018-11-10T21:57:46.072Z,28.10
2018-11-10T22:00:16.100Z,41.07
2018-11-10T22:02:44.738Z,30.53
2018-11-10T22:05:12.964Z,28.93
2018-11-10T22:07:41.156Z,29.43
2018-11-10T22:10:11.257Z,32.77
2018-11-10T22:12:39.536Z,31.63
2018-11-10T22:15:10.226Z,32.90
2018-11-10T22:17:38.404Z,31.80
2018-11-10T22:20:08.039Z,29.90
2018-11-10T22:22:36.300Z,33.13
2018-11-10T22:25:04.798Z,30.03
2018-11-10T22:27:38.187Z,30.30
2018-11-10T22:30:07.574Z,27.90
2018-11-10T22:32:35.799Z,28.97
2018-11-10T22:35:05.322Z,28.13
2018-11-10T22:37:33.511Z,28.17
2018-11-10T22:40:01.683Z,27.30
2018-11-10T22:42:29.961Z,27.17
2018-11-10T22:44:58.230Z,26.30
2018-11-10T22:47:26.425Z,27.40
2018-11-10T22:49:54.624Z,25.70
2018-11-10T22:52:22.818Z,25.07
2018-11-10T22:54:53.043Z,26.20
2018-11-10T22:57:21.253Z,23.50
2018-11-10T22:59:49.436Z,25.10
2018-11-10T23:02:17.670Z,27.33
2018-11-10T23:04:45.844Z,20.73
2018-11-10T23:07:14.043Z,20.40
2018-11-10T23:09:42.286Z,21.07
2018-11-10T23:12:10.476Z,21.93
2018-11-10T23:14:38.673Z,20.93
2018-11-10T23:17:06.678Z,22.40
2018-11-10T23:19:34.888Z,23.23
2018-11-10T23:22:03.070Z,22.70
2018-11-10T23:24:31.254Z,22.70
2018-11-10T23:26:59.445Z,23.50
2018-11-10T23:29:27.647Z,24.00
2018-11-10T23:31:55.836Z,22.27
2018-11-10T23:34:24.019Z,22.93
2018-11-10T23:36:52.251Z,21.30
2018-11-10T23:39:20.427Z,20.77
2018-11-10T23:41:48.671Z,21.13
2018-11-10T23:44:16.874Z,20.17
2018-11-10T23:46:45.123Z,20.13
2018-11-10T23:49:13.300Z,20.93
2018-11-10T23:51:41.502Z,20.43
2018-11-10T23:54:09.710Z,19.67
2018-11-10T23:56:37.828Z,19.40
2018-11-10T23:59:06.539Z,20.13
